x

Long Key, Fl (lonf1) Weather Station

9:00am - Tue 4th Aug 2015 All times are CDT. -4 hours from GMT.

  • Wind
    7mph, 8mph gusts
  • Sea Temp 87°f
  • Air Temp 86°f
  • Sea Pressure 1018mb
  • Long Key, Fl
  • Long Key, Fl

More Historic Weather Station data

Upgrade to MSW Pro to gain access to the past 30 days of data for over 8000 Wavebouys and Weather Stations around the globe.

Join Pro

Comparision Forecast

View Surf forecast
   
Tue 08/04 9:00am 7 8 mph 1018mb 87f 86f
8:00am 9 10 mph 1017.7mb 87f 85f
7:00am 8 9 mph 1017.3mb 87f 84f
6:00am 10 11 mph 1016.8mb 87f 84f
5:00am 8 9 mph 1016.6mb 87f 84f
4:00am 6 7 mph 1016.6mb 87f 83f
3:00am 6 8 mph 1016.9mb 87f 83f
2:00am 9 13 mph 1017.2mb 87f 84f
1:00am 9 10 mph 1017.4mb 87f 84f
12:00am 8 9 mph 1017.9mb 87f 83f
Mon 08/03 11:00pm 9 10 mph 1017.6mb 88f 83f
10:00pm 10 11 mph 1017.4mb 88f 84f
9:00pm 8 10 mph 1016.8mb 88f 83f
8:00pm 13 15 mph 1016.6mb 88f 83f
7:00pm 7
mph
1015.8mb 89f 85f
6:00pm 11 14 mph 1016.3mb 89f 83f
5:00pm 14 16 mph 1015.8mb 89f 81f
4:00pm 13 18 mph 1017mb 89f 82f
3:00pm 22 24 mph 1016.5mb 89f 80f
2:00pm 15 16 mph 1016.8mb 89f 83f
1:00pm 9 11 mph 1017.2mb 89f 86f
12:00pm 9 13 mph 1017.3mb 89f 86f
11:00am 9 10 mph 1017.1mb 88f 85f
10:00am 7 8 mph 1016.7mb 87f 85f
9:00am 7 8 mph 1016.1mb 87f 85f
8:00am 9
mph
1015.7mb 87f 84f
7:00am 8 9 mph 1014.8mb 88f 84f
6:00am 6 7 mph 1014.5mb 88f 84f
5:00am 8 9 mph 1014.2mb 89f 84f
4:00am 7 9 mph 1014.4mb 89f 84f
3:00am 6 7 mph 1014.9mb 89f 84f
2:00am 3
mph
1015.7mb 89f 84f
1:00am 9 11 mph 1016.1mb 90f 83f
12:00am 8 10 mph 1016.5mb 89f 85f
Sun 08/02 11:00pm 6 7 mph 1016.5mb 89f 85f
10:00pm 2
mph
1015.9mb 89f 85f
9:00pm 2 3 mph 1015.8mb 89f 84f
8:00pm 7 8 mph 1015.7mb 89f 86f
7:00pm 2 3 mph 1015.5mb 90f 86f
6:00pm 5 7 mph 1015mb 90f 87f
5:00pm 7 8 mph 1015mb 91f 87f
4:00pm 8 9 mph 1015.2mb 90f 87f
3:00pm 9 10 mph 1015.7mb 90f 86f
2:00pm 9 11 mph 1016mb 89f 86f
1:00pm 10 11 mph 1016.3mb 89f 87f
12:00pm 10 11 mph 1016.6mb 89f 87f
11:00am 10 11 mph 1016.3mb 88f 86f
10:00am 10 11 mph 1015.9mb 88f 86f
9:00am 10 11 mph 1015.2mb 87f 86f
8:00am 13 15 mph 1015.1mb 87f 85f
7:00am 11 14 mph 1014.8mb 88f 85f
6:00am 14 15 mph 1014.6mb 88f 85f
5:00am 13 15 mph 1014.5mb 88f 86f
4:00am 13 16 mph 1014.7mb 88f 85f
3:00am 11 14 mph 1015.3mb 89f 86f
2:00am 13 14 mph 1016mb 89f 85f
1:00am 14 17 mph 1016.5mb 89f 86f
12:00am 13 15 mph 1016.5mb 89f 86f
Sat 08/01 11:00pm 15 16 mph 1016.9mb 89f 86f
10:00pm 11 15 mph 1016.4mb 89f 86f
9:00pm 8 9 mph 1016mb 89f 86f
8:00pm 6 7 mph 1015.2mb 89f 85f
7:00pm 6 8 mph 1015mb 90f 86f
6:00pm 6 7 mph 1015mb 90f 87f
5:00pm 9 11 mph 1015.4mb 91f 87f
4:00pm 9 11 mph 1015.8mb 91f 87f
3:00pm 8 9 mph 1016.4mb 90f 87f
2:00pm 10 13 mph 1016.7mb 90f 87f
1:00pm 15 17 mph 1016.9mb 90f 87f
12:00pm 16 18 mph 1017mb 89f 87f
11:00am 16 18 mph 1016.8mb 89f 86f
10:00am 14 16 mph 1016.7mb 88f 86f
9:00am 13 15 mph 1016.6mb 88f 85f
8:00am 11 14 mph 1016.3mb 88f 85f
7:00am 13 14 mph 1015.9mb 88f 85f
6:00am 6 7 mph 1016.1mb 89f 85f
5:00am 10 11 mph 1016.4mb 89f 85f
4:00am 7 9 mph 1016.8mb 89f 85f
3:00am 9 10 mph 1017mb 89f 85f
2:00am 11 14 mph 1017.3mb 89f 85f
1:00am 10 11 mph 1017.9mb 89f 85f
12:00am 10 11 mph 1018.3mb 90f 85f
Fri 07/31 11:00pm 11 14 mph 1017.9mb 90f 85f
10:00pm 9 13 mph 1017.9mb 90f 83f
9:00pm 21 23 mph 1017.8mb 90f 83f
8:00pm 5 6 mph 1016.7mb 90f 85f
7:00pm 10 11 mph 1016.3mb 91f 86f
6:00pm 10 13 mph 1016.1mb 91f 86f
5:00pm 10 13 mph 1016.3mb 91f 87f
4:00pm 10 13 mph 1016.8mb 91f 87f
3:00pm 13 14 mph 1017.3mb 91f 87f